sensor_id;sensor_type;location;lat;lon;timestamp;temperature;humidity
5138;DHT22;53959;53.626;11.410;2022-09-09T00:02:18;14.30;99.90
5138;DHT22;53959;53.626;11.410;2022-09-09T00:04:53;14.30;99.90
5138;DHT22;53959;53.626;11.410;2022-09-09T00:07:40;14.30;99.90
5138;DHT22;53959;53.626;11.410;2022-09-09T00:10:37;14.30;99.90
5138;DHT22;53959;53.626;11.410;2022-09-09T00:21:14;14.30;99.90
5138;DHT22;53959;53.626;11.410;2022-09-09T00:23:54;14.20;99.90
5138;DHT22;53959;53.626;11.410;2022-09-09T00:29:05;14.20;99.90
5138;DHT22;53959;53.626;11.410;2022-09-09T00:31:35;14.10;99.90
5138;DHT22;53959;53.626;11.410;2022-09-09T00:34:14;14.10;99.90
5138;DHT22;53959;53.626;11.410;2022-09-09T00:36:42;14.10;99.90
5138;DHT22;53959;53.626;11.410;2022-09-09T00:39:34;14.20;99.90
5138;DHT22;53959;53.626;11.410;2022-09-09T00:42:10;14.20;99.90
5138;DHT22;53959;53.626;11.410;2022-09-09T00:57:52;14.20;99.90
5138;DHT22;53959;53.626;11.410;2022-09-09T01:00:25;14.20;99.90
5138;DHT22;53959;53.626;11.410;2022-09-09T01:08:01;14.20;99.90
5138;DHT22;53959;53.626;11.410;2022-09-09T01:10:48;14.10;99.90
5138;DHT22;53959;53.626;11.410;2022-09-09T01:13:32;14.20;99.90
5138;DHT22;53959;53.626;11.410;2022-09-09T01:16:00;14.10;99.90
5138;DHT22;53959;53.626;11.410;2022-09-09T01:18:37;14.10;99.90
5138;DHT22;53959;53.626;11.410;2022-09-09T01:24:27;14.10;99.90
5138;DHT22;53959;53.626;11.410;2022-09-09T01:27:00;14.00;99.90
5138;DHT22;53959;53.626;11.410;2022-09-09T01:29:26;14.00;99.90
5138;DHT22;53959;53.626;11.410;2022-09-09T01:32:37;14.00;99.90
5138;DHT22;53959;53.626;11.410;2022-09-09T01:34:48;13.90;99.90
5138;DHT22;53959;53.626;11.410;2022-09-09T01:37:15;14.00;99.90
5138;DHT22;53959;53.626;11.410;2022-09-09T01:39:43;14.00;99.90
5138;DHT22;53959;53.626;11.410;2022-09-09T01:42:13;14.00;99.90
5138;DHT22;53959;53.626;11.410;2022-09-09T01:44:40;14.10;99.90
5138;DHT22;53959;53.626;11.410;2022-09-09T01:47:06;14.10;99.90
5138;DHT22;53959;53.626;11.410;2022-09-09T01:49:32;14.10;99.90
5138;DHT22;53959;53.626;11.410;2022-09-09T01:52:01;14.10;99.90
5138;DHT22;53959;53.626;11.410;2022-09-09T01:54:28;14.10;99.90
5138;DHT22;53959;53.626;11.410;2022-09-09T02:00:05;14.00;99.90
5138;DHT22;53959;53.626;11.410;2022-09-09T02:05:36;14.00;99.90
5138;DHT22;53959;53.626;11.410;2022-09-09T02:10:46;14.00;99.90
5138;DHT22;53959;53.626;11.410;2022-09-09T02:13:17;14.10;99.90
5138;DHT22;53959;53.626;11.410;2022-09-09T02:16:03;14.10;99.90
5138;DHT22;53959;53.626;11.410;2022-09-09T02:18:40;14.20;99.90
5138;DHT22;53959;53.626;11.410;2022-09-09T02:21:08;14.20;99.90
5138;DHT22;53959;53.626;11.410;2022-09-09T02:23:38;14.20;99.90
5138;DHT22;53959;53.626;11.410;2022-09-09T02:26:06;14.10;99.90
5138;DHT22;53959;53.626;11.410;2022-09-09T02:28:34;14.10;99.90
5138;DHT22;53959;53.626;11.410;2022-09-09T02:31:02;14.10;99.90
5138;DHT22;53959;53.626;11.410;2022-09-09T02:33:32;14.10;99.90
5138;DHT22;53959;53.626;11.410;2022-09-09T02:36:01;14.10;99.90
5138;DHT22;53959;53.626;11.410;2022-09-09T02:38:32;14.00;99.90
5138;DHT22;53959;53.626;11.410;2022-09-09T02:41:00;14.10;99.90
5138;DHT22;53959;53.626;11.410;2022-09-09T02:43:32;14.00;99.90
5138;DHT22;53959;53.626;11.410;2022-09-09T02:46:18;13.90;99.90
5138;DHT22;53959;53.626;11.410;2022-09-09T02:49:07;13.90;99.90
5138;DHT22;53959;53.626;11.410;2022-09-09T02:51:45;13.90;99.90
5138;DHT22;53959;53.626;11.410;2022-09-09T02:54:26;13.90;99.90
5138;DHT22;53959;53.626;11.410;2022-09-09T02:56:54;13.90;99.90
5138;DHT22;53959;53.626;11.410;2022-09-09T02:59:21;14.00;99.90
5138;DHT22;53959;53.626;11.410;2022-09-09T03:01:47;14.00;99.90
5138;DHT22;53959;53.626;11.410;2022-09-09T03:04:13;14.20;99.90
5138;DHT22;53959;53.626;11.410;2022-09-09T03:06:39;14.20;99.90
5138;DHT22;53959;53.626;11.410;2022-09-09T03:09:05;14.20;99.90
5138;DHT22;53959;53.626;11.410;2022-09-09T03:11:30;14.20;99.90
5138;DHT22;53959;53.626;11.410;2022-09-09T03:13:56;14.20;99.90
5138;DHT22;53959;53.626;11.410;2022-09-09T03:16:24;14.30;99.90
5138;DHT22;53959;53.626;11.410;2022-09-09T03:18:50;14.20;99.90
5138;DHT22;53959;53.626;11.410;2022-09-09T03:21:16;14.30;99.90
5138;DHT22;53959;53.626;11.410;2022-09-09T03:23:41;14.30;99.90
5138;DHT22;53959;53.626;11.410;2022-09-09T03:26:07;14.30;99.90
5138;DHT22;53959;53.626;11.410;2022-09-09T03:28:33;14.30;99.90
5138;DHT22;53959;53.626;11.410;2022-09-09T03:31:04;14.40;99.90
5138;DHT22;53959;53.626;11.410;2022-09-09T03:33:30;14.30;99.90
5138;DHT22;53959;53.626;11.410;2022-09-09T03:35:56;14.30;99.90
5138;DHT22;53959;53.626;11.410;2022-09-09T03:38:23;14.40;99.90
5138;DHT22;53959;53.626;11.410;2022-09-09T03:40:53;14.30;99.90
5138;DHT22;53959;53.626;11.410;2022-09-09T03:43:24;14.40;99.90
5138;DHT22;53959;53.626;11.410;2022-09-09T03:45:50;14.30;99.90
5138;DHT22;53959;53.626;11.410;2022-09-09T03:48:17;14.40;99.90
5138;DHT22;53959;53.626;11.410;2022-09-09T03:50:50;14.30;99.90
5138;DHT22;53959;53.626;11.410;2022-09-09T03:53:17;14.30;99.90
5138;DHT22;53959;53.626;11.410;2022-09-09T03:55:49;14.40;99.90
5138;DHT22;53959;53.626;11.410;2022-09-09T03:58:16;14.30;99.90
5138;DHT22;53959;53.626;11.410;2022-09-09T04:00:43;14.40;99.90
5138;DHT22;53959;53.626;11.410;2022-09-09T04:03:10;14.30;99.90
5138;DHT22;53959;53.626;11.410;2022-09-09T04:05:36;14.30;99.90
5138;DHT22;53959;53.626;11.410;2022-09-09T04:08:05;14.40;99.90
5138;DHT22;53959;53.626;11.410;2022-09-09T04:10:31;14.30;99.90
5138;DHT22;53959;53.626;11.410;2022-09-09T04:12:57;14.20;99.90
5138;DHT22;53959;53.626;11.410;2022-09-09T04:15:22;14.10;99.90
5138;DHT22;53959;53.626;11.410;2022-09-09T04:17:48;14.10;99.90
5138;DHT22;53959;53.626;11.410;2022-09-09T04:20:13;14.20;99.90
5138;DHT22;53959;53.626;11.410;2022-09-09T04:22:39;14.20;99.90
5138;DHT22;53959;53.626;11.410;2022-09-09T04:25:05;14.10;99.90
5138;DHT22;53959;53.626;11.410;2022-09-09T04:27:31;14.10;99.90
5138;DHT22;53959;53.626;11.410;2022-09-09T04:29:57;14.10;99.90
5138;DHT22;53959;53.626;11.410;2022-09-09T04:32:23;14.20;99.90
5138;DHT22;53959;53.626;11.410;2022-09-09T04:34:48;14.20;99.90
5138;DHT22;53959;53.626;11.410;2022-09-09T04:37:14;14.20;99.90
5138;DHT22;53959;53.626;11.410;2022-09-09T04:39:40;14.10;99.90
5138;DHT22;53959;53.626;11.410;2022-09-09T04:42:05;14.10;99.90
5138;DHT22;53959;53.626;11.410;2022-09-09T04:44:32;14.10;99.90
5138;DHT22;53959;53.626;11.410;2022-09-09T04:46:57;14.10;99.90
5138;DHT22;53959;53.626;11.410;2022-09-09T04:49:23;14.00;99.90
5138;DHT22;53959;53.626;11.410;2022-09-09T04:51:49;14.10;99.90
5138;DHT22;53959;53.626;11.410;2022-09-09T04:54:14;14.00;99.90
5138;DHT22;53959;53.626;11.410;2022-09-09T04:56:41;14.00;99.90
5138;DHT22;53959;53.626;11.410;2022-09-09T04:59:07;14.10;99.90
5138;DHT22;53959;53.626;11.410;2022-09-09T05:01:33;14.00;99.90
5138;DHT22;53959;53.626;11.410;2022-09-09T05:03:59;14.00;99.90
5138;DHT22;53959;53.626;11.410;2022-09-09T05:06:24;14.00;99.90
5138;DHT22;53959;53.626;11.410;2022-09-09T05:08:50;14.00;99.90
5138;DHT22;53959;53.626;11.410;2022-09-09T05:11:25;14.10;99.90
5138;DHT22;53959;53.626;11.410;2022-09-09T05:13:51;14.00;99.90
5138;DHT22;53959;53.626;11.410;2022-09-09T05:16:17;14.00;99.90
5138;DHT22;53959;53.626;11.410;2022-09-09T05:18:43;14.00;99.90
5138;DHT22;53959;53.626;11.410;2022-09-09T05:21:10;13.90;99.90
5138;DHT22;53959;53.626;11.410;2022-09-09T05:23:36;14.00;99.90
5138;DHT22;53959;53.626;11.410;2022-09-09T05:26:03;14.00;99.90
5138;DHT22;53959;53.626;11.410;2022-09-09T05:28:29;13.90;99.90
5138;DHT22;53959;53.626;11.410;2022-09-09T05:31:00;13.90;99.90
5138;DHT22;53959;53.626;11.410;2022-09-09T05:33:27;13.90;99.90
5138;DHT22;53959;53.626;11.410;2022-09-09T05:35:57;13.90;99.90
5138;DHT22;53959;53.626;11.410;2022-09-09T05:38:23;13.90;99.90
5138;DHT22;53959;53.626;11.410;2022-09-09T05:40:52;13.90;99.90
5138;DHT22;53959;53.626;11.410;2022-09-09T05:43:19;13.80;99.90
5138;DHT22;53959;53.626;11.410;2022-09-09T05:45:46;14.00;99.90
5138;DHT22;53959;53.626;11.410;2022-09-09T05:48:13;14.00;99.90
5138;DHT22;53959;53.626;11.410;2022-09-09T05:50:40;14.00;99.90
5138;DHT22;53959;53.626;11.410;2022-09-09T05:53:06;14.00;99.90
5138;DHT22;53959;53.626;11.410;2022-09-09T05:55:32;14.00;99.90
5138;DHT22;53959;53.626;11.410;2022-09-09T05:57:57;14.00;99.90
5138;DHT22;53959;53.626;11.410;2022-09-09T06:00:23;14.30;99.90
5138;DHT22;53959;53.626;11.410;2022-09-09T06:02:52;14.20;99.90
5138;DHT22;53959;53.626;11.410;2022-09-09T06:05:18;14.20;99.90
5138;DHT22;53959;53.626;11.410;2022-09-09T06:07:43;14.20;99.90
5138;DHT22;53959;53.626;11.410;2022-09-09T06:10:10;14.20;99.90
5138;DHT22;53959;53.626;11.410;2022-09-09T06:12:39;14.20;99.90
5138;DHT22;53959;53.626;11.410;2022-09-09T06:15:06;14.10;99.90
5138;DHT22;53959;53.626;11.410;2022-09-09T06:17:32;14.20;99.90
5138;DHT22;53959;53.626;11.410;2022-09-09T06:19:57;14.20;99.90
5138;DHT22;53959;53.626;11.410;2022-09-09T06:22:23;14.30;99.90
5138;DHT22;53959;53.626;11.410;2022-09-09T06:24:49;14.30;99.90
5138;DHT22;53959;53.626;11.410;2022-09-09T06:27:14;14.40;99.90
5138;DHT22;53959;53.626;11.410;2022-09-09T06:29:40;14.50;99.90
5138;DHT22;53959;53.626;11.410;2022-09-09T06:32:05;14.40;99.90
5138;DHT22;53959;53.626;11.410;2022-09-09T06:34:33;14.40;99.90
5138;DHT22;53959;53.626;11.410;2022-09-09T06:36:59;14.60;99.90
5138;DHT22;53959;53.626;11.410;2022-09-09T06:39:25;14.70;99.90
5138;DHT22;53959;53.626;11.410;2022-09-09T06:41:51;14.80;99.90
5138;DHT22;53959;53.626;11.410;2022-09-09T06:44:18;14.80;99.90
5138;DHT22;53959;53.626;11.410;2022-09-09T06:46:44;14.70;99.90
5138;DHT22;53959;53.626;11.410;2022-09-09T06:49:12;14.70;99.90
5138;DHT22;53959;53.626;11.410;2022-09-09T06:51:38;14.80;99.90
5138;DHT22;53959;53.626;11.410;2022-09-09T06:54:11;14.70;99.90
5138;DHT22;53959;53.626;11.410;2022-09-09T06:56:41;14.60;99.90
5138;DHT22;53959;53.626;11.410;2022-09-09T06:59:08;14.70;99.90
5138;DHT22;53959;53.626;11.410;2022-09-09T07:01:36;14.80;99.90
5138;DHT22;53959;53.626;11.410;2022-09-09T07:04:02;14.50;99.90
5138;DHT22;53959;53.626;11.410;2022-09-09T07:06:31;14.60;99.90
5138;DHT22;53959;53.626;11.410;2022-09-09T07:08:59;14.70;99.90
5138;DHT22;53959;53.626;11.410;2022-09-09T07:11:27;14.60;99.90
5138;DHT22;53959;53.626;11.410;2022-09-09T07:13:54;14.70;99.90
5138;DHT22;53959;53.626;11.410;2022-09-09T07:16:21;14.80;99.90
5138;DHT22;53959;53.626;11.410;2022-09-09T07:18:50;14.80;99.90
5138;DHT22;53959;53.626;11.410;2022-09-09T07:21:16;14.90;99.90
5138;DHT22;53959;53.626;11.410;2022-09-09T07:23:42;15.00;99.90
5138;DHT22;53959;53.626;11.410;2022-09-09T07:26:15;15.00;99.90
5138;DHT22;53959;53.626;11.410;2022-09-09T07:28:41;15.10;99.90
5138;DHT22;53959;53.626;11.410;2022-09-09T07:31:12;15.10;99.90
5138;DHT22;53959;53.626;11.410;2022-09-09T07:33:38;15.00;99.90
5138;DHT22;53959;53.626;11.410;2022-09-09T07:36:22;14.90;99.90
5138;DHT22;53959;53.626;11.410;2022-09-09T07:38:59;15.10;99.90
5138;DHT22;53959;53.626;11.410;2022-09-09T07:41:28;15.20;99.90
5138;DHT22;53959;53.626;11.410;2022-09-09T07:43:55;15.20;99.90
5138;DHT22;53959;53.626;11.410;2022-09-09T07:46:24;15.20;99.90
5138;DHT22;53959;53.626;11.410;2022-09-09T07:48:54;15.30;99.90
5138;DHT22;53959;53.626;11.410;2022-09-09T07:51:36;15.20;99.90
5138;DHT22;53959;53.626;11.410;2022-09-09T07:54:05;15.30;99.90
5138;DHT22;53959;53.626;11.410;2022-09-09T07:56:31;15.40;99.90
5138;DHT22;53959;53.626;11.410;2022-09-09T07:58:58;15.30;99.90
5138;DHT22;53959;53.626;11.410;2022-09-09T08:01:28;15.40;99.90
5138;DHT22;53959;53.626;11.410;2022-09-09T08:04:00;15.50;99.90
5138;DHT22;53959;53.626;11.410;2022-09-09T08:06:28;15.70;99.90
5138;DHT22;53959;53.626;11.410;2022-09-09T08:08:55;15.80;99.90
5138;DHT22;53959;53.626;11.410;2022-09-09T08:11:22;15.90;99.90
5138;DHT22;53959;53.626;11.410;2022-09-09T08:13:49;16.20;99.90
5138;DHT22;53959;53.626;11.410;2022-09-09T08:16:18;16.70;99.90
5138;DHT22;53959;53.626;11.410;2022-09-09T08:18:44;16.80;99.90
5138;DHT22;53959;53.626;11.410;2022-09-09T08:21:14;16.60;99.90
5138;DHT22;53959;53.626;11.410;2022-09-09T08:23:43;17.10;99.90
5138;DHT22;53959;53.626;11.410;2022-09-09T08:28:36;17.20;99.90
5138;DHT22;53959;53.626;11.410;2022-09-09T08:31:11;16.80;99.90
5138;DHT22;53959;53.626;11.410;2022-09-09T08:33:37;16.70;99.90
5138;DHT22;53959;53.626;11.410;2022-09-09T08:36:04;16.80;99.90
5138;DHT22;53959;53.626;11.410;2022-09-09T08:38:30;16.90;99.90
5138;DHT22;53959;53.626;11.410;2022-09-09T08:43:35;16.80;99.90
5138;DHT22;53959;53.626;11.410;2022-09-09T08:46:15;17.00;99.90
5138;DHT22;53959;53.626;11.410;2022-09-09T08:49:06;17.00;99.90
5138;DHT22;53959;53.626;11.410;2022-09-09T08:51:39;16.90;99.90
5138;DHT22;53959;53.626;11.410;2022-09-09T08:54:04;17.10;99.90
5138;DHT22;53959;53.626;11.410;2022-09-09T08:56:32;17.00;99.90
5138;DHT22;53959;53.626;11.410;2022-09-09T08:59:00;17.20;99.90
5138;DHT22;53959;53.626;11.410;2022-09-09T09:01:41;17.20;99.90
5138;DHT22;53959;53.626;11.410;2022-09-09T09:07:30;17.40;99.90
5138;DHT22;53959;53.626;11.410;2022-09-09T09:10:10;17.30;99.90
5138;DHT22;53959;53.626;11.410;2022-09-09T09:12:43;17.20;99.90
5138;DHT22;53959;53.626;11.410;2022-09-09T09:15:19;17.40;99.90
5138;DHT22;53959;53.626;11.410;2022-09-09T09:17:46;17.20;99.90
5138;DHT22;53959;53.626;11.410;2022-09-09T09:20:14;17.40;99.90
5138;DHT22;53959;53.626;11.410;2022-09-09T09:22:51;17.30;99.90
5138;DHT22;53959;53.626;11.410;2022-09-09T09:25:31;17.30;99.90
5138;DHT22;53959;53.626;11.410;2022-09-09T09:28:17;17.60;99.90
5138;DHT22;53959;53.626;11.410;2022-09-09T09:35:56;17.60;99.90
5138;DHT22;53959;53.626;11.410;2022-09-09T09:38:24;17.50;99.90
5138;DHT22;53959;53.626;11.410;2022-09-09T09:40:54;17.50;99.90
5138;DHT22;53959;53.626;11.410;2022-09-09T09:45:54;18.10;99.90
5138;DHT22;53959;53.626;11.410;2022-09-09T09:48:20;18.20;99.90
5138;DHT22;53959;53.626;11.410;2022-09-09T09:50:55;18.10;99.90
5138;DHT22;53959;53.626;11.410;2022-09-09T09:53:27;18.00;99.90
5138;DHT22;53959;53.626;11.410;2022-09-09T09:55:55;17.90;99.90
5138;DHT22;53959;53.626;11.410;2022-09-09T09:58:21;18.00;99.90
5138;DHT22;53959;53.626;11.410;2022-09-09T10:00:50;18.00;99.90
5138;DHT22;53959;53.626;11.410;2022-09-09T10:03:26;18.10;99.90
5138;DHT22;53959;53.626;11.410;2022-09-09T10:05:52;18.20;99.90
5138;DHT22;53959;53.626;11.410;2022-09-09T10:08:18;18.30;99.90
5138;DHT22;53959;53.626;11.410;2022-09-09T10:13:53;18.70;99.90
5138;DHT22;53959;53.626;11.410;2022-09-09T10:19:05;18.80;99.90
5138;DHT22;53959;53.626;11.410;2022-09-09T10:24:40;18.70;99.90
5138;DHT22;53959;53.626;11.410;2022-09-09T10:27:18;18.90;99.90
5138;DHT22;53959;53.626;11.410;2022-09-09T10:35:33;18.70;99.90
5138;DHT22;53959;53.626;11.410;2022-09-09T10:38:12;18.90;99.90
5138;DHT22;53959;53.626;11.410;2022-09-09T10:43:44;18.80;99.90
5138;DHT22;53959;53.626;11.410;2022-09-09T10:46:33;18.80;99.90
5138;DHT22;53959;53.626;11.410;2022-09-09T10:49:26;19.20;99.90
5138;DHT22;53959;53.626;11.410;2022-09-09T10:52:18;19.10;99.90
5138;DHT22;53959;53.626;11.410;2022-09-09T10:55:17;19.00;99.90
5138;DHT22;53959;53.626;11.410;2022-09-09T10:57:46;19.20;99.90
5138;DHT22;53959;53.626;11.410;2022-09-09T11:00:17;19.30;99.90
5138;DHT22;53959;53.626;11.410;2022-09-09T11:02:43;19.60;99.90
5138;DHT22;53959;53.626;11.410;2022-09-09T11:10:42;19.70;99.90
5138;DHT22;53959;53.626;11.410;2022-09-09T11:13:30;19.70;99.90
5138;DHT22;53959;53.626;11.410;2022-09-09T11:16:19;19.40;99.90
5138;DHT22;53959;53.626;11.410;2022-09-09T11:18:47;19.80;99.90
5138;DHT22;53959;53.626;11.410;2022-09-09T11:21:20;19.60;99.90
5138;DHT22;53959;53.626;11.410;2022-09-09T11:24:00;19.70;99.90
5138;DHT22;53959;53.626;11.410;2022-09-09T11:26:35;20.00;99.90
5138;DHT22;53959;53.626;11.410;2022-09-09T11:40:24;20.20;99.90
5138;DHT22;53959;53.626;11.410;2022-09-09T11:43:12;20.20;99.90
5138;DHT22;53959;53.626;11.410;2022-09-09T11:45:41;20.10;99.90
5138;DHT22;53959;53.626;11.410;2022-09-09T11:48:31;20.30;1.00
5138;DHT22;53959;53.626;11.410;2022-09-09T11:51:05;20.20;99.90
5138;DHT22;53959;53.626;11.410;2022-09-09T11:53:34;19.90;99.90
5138;DHT22;53959;53.626;11.410;2022-09-09T11:56:10;20.00;41.00
5138;DHT22;53959;53.626;11.410;2022-09-09T11:59:03;20.20;99.90
5138;DHT22;53959;53.626;11.410;2022-09-09T12:01:34;20.60;9.40
5138;DHT22;53959;53.626;11.410;2022-09-09T12:07:05;20.10;1.00
5138;DHT22;53959;53.626;11.410;2022-09-09T12:12:48;20.20;99.90
5138;DHT22;53959;53.626;11.410;2022-09-09T12:15:23;20.40;99.90
5138;DHT22;53959;53.626;11.410;2022-09-09T12:17:54;20.20;99.90
5138;DHT22;53959;53.626;11.410;2022-09-09T12:20:35;20.20;99.90
5138;DHT22;53959;53.626;11.410;2022-09-09T12:25:48;20.10;99.90
5138;DHT22;53959;53.626;11.410;2022-09-09T12:28:21;20.10;1.00
5138;DHT22;53959;53.626;11.410;2022-09-09T12:33:19;20.40;99.90
5138;DHT22;53959;53.626;11.410;2022-09-09T12:35:48;20.40;1.00
5138;DHT22;53959;53.626;11.410;2022-09-09T12:38:31;20.50;1.00
5138;DHT22;53959;53.626;11.410;2022-09-09T12:40:58;20.30;99.90
5138;DHT22;53959;53.626;11.410;2022-09-09T12:43:26;20.30;1.00
5138;DHT22;53959;53.626;11.410;2022-09-09T12:45:57;20.30;99.90
5138;DHT22;53959;53.626;11.410;2022-09-09T12:48:34;20.60;99.90
5138;DHT22;53959;53.626;11.410;2022-09-09T12:51:01;20.60;1.00
5138;DHT22;53959;53.626;11.410;2022-09-09T12:53:37;20.90;1.00
5138;DHT22;53959;53.626;11.410;2022-09-09T12:56:07;21.70;99.90
5138;DHT22;53959;53.626;11.410;2022-09-09T12:58:35;21.70;99.90
5138;DHT22;53959;53.626;11.410;2022-09-09T13:01:02;21.40;99.90
5138;DHT22;53959;53.626;11.410;2022-09-09T13:03:31;21.10;1.00
5138;DHT22;53959;53.626;11.410;2022-09-09T13:06:12;21.00;99.90
5138;DHT22;53959;53.626;11.410;2022-09-09T13:08:39;21.70;20.50
5138;DHT22;53959;53.626;11.410;2022-09-09T13:11:30;21.70;99.90
5138;DHT22;53959;53.626;11.410;2022-09-09T13:14:00;21.60;99.90
5138;DHT22;53959;53.626;11.410;2022-09-09T13:16:32;21.50;99.90
5138;DHT22;53959;53.626;11.410;2022-09-09T13:19:17;21.70;1.00
5138;DHT22;53959;53.626;11.410;2022-09-09T13:21:43;21.10;1.00
5138;DHT22;53959;53.626;11.410;2022-09-09T13:24:33;20.90;99.90
5138;DHT22;53959;53.626;11.410;2022-09-09T13:27:50;20.90;99.90
5138;DHT22;53959;53.626;11.410;2022-09-09T13:29:53;20.80;1.00
5138;DHT22;53959;53.626;11.410;2022-09-09T13:32:23;21.20;99.90
5138;DHT22;53959;53.626;11.410;2022-09-09T13:34:57;21.20;99.90
5138;DHT22;53959;53.626;11.410;2022-09-09T13:37:33;21.10;1.00
5138;DHT22;53959;53.626;11.410;2022-09-09T13:39:59;20.90;99.90
5138;DHT22;53959;53.626;11.410;2022-09-09T13:42:27;20.80;99.90
5138;DHT22;53959;53.626;11.410;2022-09-09T13:44:54;20.80;99.90
5138;DHT22;53959;53.626;11.410;2022-09-09T13:47:28;20.70;1.00
5138;DHT22;53959;53.626;11.410;2022-09-09T13:49:54;20.70;1.00
5138;DHT22;53959;53.626;11.410;2022-09-09T13:52:20;20.70;99.90
5138;DHT22;53959;53.626;11.410;2022-09-09T13:54:48;20.60;1.00
5138;DHT22;53959;53.626;11.410;2022-09-09T13:57:20;20.60;99.90
5138;DHT22;53959;53.626;11.410;2022-09-09T13:59:47;20.60;96.40
5138;DHT22;53959;53.626;11.410;2022-09-09T14:02:14;20.90;1.00
5138;DHT22;53959;53.626;11.410;2022-09-09T14:04:39;21.10;99.90
5138;DHT22;53959;53.626;11.410;2022-09-09T14:07:12;20.90;99.90
5138;DHT22;53959;53.626;11.410;2022-09-09T14:09:38;20.90;99.90
5138;DHT22;53959;53.626;11.410;2022-09-09T14:12:04;20.50;99.90
5138;DHT22;53959;53.626;11.410;2022-09-09T14:14:30;20.40;99.90
5138;DHT22;53959;53.626;11.410;2022-09-09T14:16:56;20.30;99.90
5138;DHT22;53959;53.626;11.410;2022-09-09T14:19:21;20.30;99.90
5138;DHT22;53959;53.626;11.410;2022-09-09T14:21:47;20.20;1.00
5138;DHT22;53959;53.626;11.410;2022-09-09T14:24:12;20.10;99.90
5138;DHT22;53959;53.626;11.410;2022-09-09T14:26:38;20.10;1.00
5138;DHT22;53959;53.626;11.410;2022-09-09T14:29:03;19.90;99.90
5138;DHT22;53959;53.626;11.410;2022-09-09T14:31:29;19.80;99.90
5138;DHT22;53959;53.626;11.410;2022-09-09T14:33:54;19.80;99.90
5138;DHT22;53959;53.626;11.410;2022-09-09T14:36:20;19.60;99.90
5138;DHT22;53959;53.626;11.410;2022-09-09T14:38:46;19.60;99.90
5138;DHT22;53959;53.626;11.410;2022-09-09T14:41:14;19.60;99.90
5138;DHT22;53959;53.626;11.410;2022-09-09T14:43:42;19.60;99.90
5138;DHT22;53959;53.626;11.410;2022-09-09T14:46:16;19.50;99.90
5138;DHT22;53959;53.626;11.410;2022-09-09T14:48:42;19.40;99.90
5138;DHT22;53959;53.626;11.410;2022-09-09T14:51:11;19.40;99.90
5138;DHT22;53959;53.626;11.410;2022-09-09T14:53:39;19.40;99.90
5138;DHT22;53959;53.626;11.410;2022-09-09T14:56:15;19.20;99.90
5138;DHT22;53959;53.626;11.410;2022-09-09T14:58:41;19.00;99.90
5138;DHT22;53959;53.626;11.410;2022-09-09T15:01:12;18.80;99.90
5138;DHT22;53959;53.626;11.410;2022-09-09T15:03:40;18.50;99.90
5138;DHT22;53959;53.626;11.410;2022-09-09T15:06:13;18.30;99.90
5138;DHT22;53959;53.626;11.410;2022-09-09T15:08:41;18.20;99.90
5138;DHT22;53959;53.626;11.410;2022-09-09T15:11:07;18.10;99.90
5138;DHT22;53959;53.626;11.410;2022-09-09T15:13:33;18.10;99.90
5138;DHT22;53959;53.626;11.410;2022-09-09T15:16:17;18.00;99.90
5138;DHT22;53959;53.626;11.410;2022-09-09T15:18:44;17.90;99.90
5138;DHT22;53959;53.626;11.410;2022-09-09T15:21:16;17.80;99.90
5138;DHT22;53959;53.626;11.410;2022-09-09T15:23:42;17.70;99.90
5138;DHT22;53959;53.626;11.410;2022-09-09T15:26:08;17.60;99.90
5138;DHT22;53959;53.626;11.410;2022-09-09T15:28:36;17.40;99.90
5138;DHT22;53959;53.626;11.410;2022-09-09T15:31:06;17.40;99.90
5138;DHT22;53959;53.626;11.410;2022-09-09T15:33:33;17.30;99.90
5138;DHT22;53959;53.626;11.410;2022-09-09T15:35:59;17.10;99.90
5138;DHT22;53959;53.626;11.410;2022-09-09T15:38:25;17.10;99.90
5138;DHT22;53959;53.626;11.410;2022-09-09T15:40:54;17.00;99.90
5138;DHT22;53959;53.626;11.410;2022-09-09T15:43:20;17.00;99.90
5138;DHT22;53959;53.626;11.410;2022-09-09T15:45:52;17.00;99.90
5138;DHT22;53959;53.626;11.410;2022-09-09T15:48:19;17.10;99.90
5138;DHT22;53959;53.626;11.410;2022-09-09T15:50:47;17.00;99.90
5138;DHT22;53959;53.626;11.410;2022-09-09T15:53:27;17.00;99.90
5138;DHT22;53959;53.626;11.410;2022-09-09T15:55:55;17.00;99.90
5138;DHT22;53959;53.626;11.410;2022-09-09T15:58:21;17.00;99.90
5138;DHT22;53959;53.626;11.410;2022-09-09T16:00:46;16.90;99.90
5138;DHT22;53959;53.626;11.410;2022-09-09T16:03:12;16.90;99.90
5138;DHT22;53959;53.626;11.410;2022-09-09T16:05:38;17.00;99.90
5138;DHT22;53959;53.626;11.410;2022-09-09T16:08:03;17.00;99.90
5138;DHT22;53959;53.626;11.410;2022-09-09T16:10:29;17.00;99.90
5138;DHT22;53959;53.626;11.410;2022-09-09T16:12:56;16.90;99.90
5138;DHT22;53959;53.626;11.410;2022-09-09T16:15:21;17.00;99.90
5138;DHT22;53959;53.626;11.410;2022-09-09T16:17:48;16.90;99.90
5138;DHT22;53959;53.626;11.410;2022-09-09T16:20:14;16.70;99.90
5138;DHT22;53959;53.626;11.410;2022-09-09T16:22:39;16.50;99.90
5138;DHT22;53959;53.626;11.410;2022-09-09T16:25:05;16.40;99.90
5138;DHT22;53959;53.626;11.410;2022-09-09T16:27:31;16.40;99.90
5138;DHT22;53959;53.626;11.410;2022-09-09T16:29:57;16.00;99.90
5138;DHT22;53959;53.626;11.410;2022-09-09T16:32:22;15.90;99.90
5138;DHT22;53959;53.626;11.410;2022-09-09T16:34:48;15.90;99.90
5138;DHT22;53959;53.626;11.410;2022-09-09T16:37:13;15.90;99.90
5138;DHT22;53959;53.626;11.410;2022-09-09T16:39:39;15.90;99.90
5138;DHT22;53959;53.626;11.410;2022-09-09T16:42:04;15.90;99.90
5138;DHT22;53959;53.626;11.410;2022-09-09T16:44:30;15.80;99.90
5138;DHT22;53959;53.626;11.410;2022-09-09T16:46:56;15.90;99.90
5138;DHT22;53959;53.626;11.410;2022-09-09T16:49:21;15.70;99.90
5138;DHT22;53959;53.626;11.410;2022-09-09T16:51:49;15.70;99.90
5138;DHT22;53959;53.626;11.410;2022-09-09T16:54:18;15.50;99.90
5138;DHT22;53959;53.626;11.410;2022-09-09T16:56:47;15.30;99.90
5138;DHT22;53959;53.626;11.410;2022-09-09T16:59:22;15.30;99.90
5138;DHT22;53959;53.626;11.410;2022-09-09T17:01:50;15.30;99.90
5138;DHT22;53959;53.626;11.410;2022-09-09T17:04:18;15.20;99.90
5138;DHT22;53959;53.626;11.410;2022-09-09T17:06:50;15.20;99.90
5138;DHT22;53959;53.626;11.410;2022-09-09T17:09:15;15.10;99.90
5138;DHT22;53959;53.626;11.410;2022-09-09T17:11:41;15.10;99.90
5138;DHT22;53959;53.626;11.410;2022-09-09T17:14:09;15.10;99.90
5138;DHT22;53959;53.626;11.410;2022-09-09T17:16:36;15.10;99.90
5138;DHT22;53959;53.626;11.410;2022-09-09T17:19:04;15.00;99.90
5138;DHT22;53959;53.626;11.410;2022-09-09T17:21:31;14.90;99.90
5138;DHT22;53959;53.626;11.410;2022-09-09T17:23:57;15.00;99.90
5138;DHT22;53959;53.626;11.410;2022-09-09T17:26:26;15.00;99.90
5138;DHT22;53959;53.626;11.410;2022-09-09T17:28:52;14.90;99.90
5138;DHT22;53959;53.626;11.410;2022-09-09T17:31:18;15.00;99.90
5138;DHT22;53959;53.626;11.410;2022-09-09T17:33:47;14.80;99.90